createdAt,value
2022-11-10T00:01:41.366Z,10.42
2022-11-10T00:06:45.615Z,10.47
2022-11-10T00:11:49.679Z,10.52
2022-11-10T00:16:53.850Z,10.48
2022-11-10T00:21:58.068Z,10.43
2022-11-10T00:27:02.151Z,10.43
2022-11-10T00:32:06.555Z,10.39
2022-11-10T00:37:10.475Z,10.39
2022-11-10T00:42:14.660Z,10.37
2022-11-10T00:47:18.815Z,10.34
2022-11-10T00:52:23.072Z,10.23
2022-11-10T00:57:27.109Z,10.19
2022-11-10T01:02:31.291Z,10.18
2022-11-10T01:07:35.462Z,10.16
2022-11-10T01:12:39.585Z,10.10
2022-11-10T01:17:43.745Z,10.08
2022-11-10T01:22:47.924Z,10.04
2022-11-10T01:27:52.065Z,10.08
2022-11-10T01:32:56.259Z,10.07
2022-11-10T01:38:00.424Z,10.03
2022-11-10T01:43:04.565Z,9.98
2022-11-10T01:48:08.726Z,10.02
2022-11-10T01:53:12.918Z,9.98
2022-11-10T01:58:17.026Z,9.98
2022-11-10T02:03:21.498Z,9.92
2022-11-10T02:08:25.375Z,9.87
2022-11-10T02:13:29.551Z,9.81
2022-11-10T02:18:33.715Z,9.77
2022-11-10T02:23:37.880Z,9.79
2022-11-10T02:28:42.018Z,9.83
2022-11-10T02:33:46.196Z,9.85
2022-11-10T02:38:50.367Z,9.86
2022-11-10T02:43:54.550Z,9.91
2022-11-10T02:48:56.779Z,9.93
2022-11-10T02:54:00.932Z,9.99
2022-11-10T02:59:05.144Z,9.97
2022-11-10T03:04:09.259Z,9.87
2022-11-10T03:09:13.430Z,9.85
2022-11-10T03:14:17.893Z,9.78
2022-11-10T03:19:21.733Z,9.71
2022-11-10T03:24:26.101Z,9.68
2022-11-10T03:29:30.049Z,9.69
2022-11-10T03:34:34.256Z,9.72
2022-11-10T03:39:38.370Z,9.72
2022-11-10T03:44:42.535Z,9.70
2022-11-10T03:49:46.710Z,9.72
2022-11-10T03:54:50.868Z,9.79
2022-11-10T03:59:55.005Z,9.76
2022-11-10T04:04:59.213Z,9.76
2022-11-10T04:10:03.341Z,9.76
2022-11-10T04:15:07.535Z,9.72
2022-11-10T04:20:11.697Z,9.69
2022-11-10T04:25:15.843Z,9.66
2022-11-10T04:30:19.985Z,9.56
2022-11-10T04:35:24.183Z,9.56
2022-11-10T04:40:28.344Z,9.54
2022-11-10T04:45:32.500Z,9.56
2022-11-10T04:50:36.634Z,9.52
2022-11-10T04:55:40.819Z,9.48
2022-11-10T05:00:45.004Z,9.37
2022-11-10T05:05:49.135Z,9.31
2022-11-10T05:10:53.283Z,9.27
2022-11-10T05:15:57.462Z,9.29
2022-11-10T05:21:01.641Z,9.25
2022-11-10T05:26:05.775Z,9.22
2022-11-10T05:36:14.114Z,9.21
2022-11-10T05:41:18.294Z,9.15
2022-11-10T05:46:22.440Z,9.09
2022-11-10T05:51:26.607Z,9.10
2022-11-10T05:56:30.757Z,9.22
2022-11-10T06:01:34.891Z,9.32
2022-11-10T06:06:39.143Z,9.48
2022-11-10T06:11:43.234Z,9.48
2022-11-10T06:16:47.409Z,9.43
2022-11-10T06:21:57.067Z,9.41
2022-11-10T06:26:55.739Z,9.54
2022-11-10T06:31:59.885Z,9.48
2022-11-10T06:37:04.041Z,9.46
2022-11-10T06:42:08.186Z,9.39
2022-11-10T06:47:12.371Z,9.37
2022-11-10T06:52:16.525Z,9.37
2022-11-10T06:57:20.709Z,9.42
2022-11-10T07:02:24.920Z,9.42
2022-11-10T07:07:29.075Z,9.40
2022-11-10T07:12:33.310Z,9.36
2022-11-10T07:17:37.337Z,9.38
2022-11-10T07:22:41.518Z,9.39
2022-11-10T07:27:45.674Z,9.42
2022-11-10T07:32:49.842Z,9.51
2022-11-10T07:37:53.984Z,9.58
2022-11-10T07:42:58.163Z,9.65
2022-11-10T07:48:02.309Z,9.71
2022-11-10T07:53:06.487Z,9.80
2022-11-10T07:58:10.631Z,9.82
2022-11-10T08:03:14.789Z,9.82
2022-11-10T08:08:18.959Z,9.86
2022-11-10T08:13:23.476Z,9.93
2022-11-10T08:18:28.552Z,9.94
2022-11-10T08:23:29.540Z,10.00
2022-11-10T08:28:33.797Z,10.11
2022-11-10T08:33:37.864Z,10.19
2022-11-10T08:38:42.067Z,10.32
2022-11-10T08:43:46.184Z,10.40
2022-11-10T08:48:50.335Z,10.49
2022-11-10T08:53:54.528Z,10.58
2022-11-10T08:58:58.678Z,10.69
2022-11-10T09:04:02.954Z,10.78
2022-11-10T09:09:07.010Z,10.85
2022-11-10T09:14:11.160Z,10.94
2022-11-10T09:19:19.582Z,11.00
2022-11-10T09:24:19.484Z,11.07
2022-11-10T09:29:23.965Z,11.18
2022-11-10T09:34:27.814Z,11.24
2022-11-10T09:39:31.951Z,11.35
2022-11-10T09:44:36.124Z,11.47
2022-11-10T09:49:40.261Z,11.58
2022-11-10T09:54:44.451Z,11.68
2022-11-10T09:59:48.605Z,11.78
2022-11-10T10:04:52.763Z,11.89
2022-11-10T10:09:56.945Z,12.00
2022-11-10T10:15:01.099Z,12.13
2022-11-10T10:20:05.257Z,12.27
2022-11-10T10:25:09.403Z,12.35
2022-11-10T10:30:13.560Z,12.45
2022-11-10T10:35:17.760Z,12.59
2022-11-10T10:40:21.901Z,12.71
2022-11-10T10:45:26.231Z,12.82
2022-11-10T10:50:30.237Z,12.91
2022-11-10T10:55:34.367Z,13.06
2022-11-10T11:00:38.553Z,13.15
2022-11-10T11:05:42.699Z,13.34
2022-11-10T11:10:46.837Z,13.43
2022-11-10T11:15:51.030Z,13.54
2022-11-10T11:20:55.220Z,13.61
2022-11-10T11:25:59.339Z,13.69
2022-11-10T11:31:03.483Z,13.92
2022-11-10T11:36:07.659Z,14.07
2022-11-10T11:41:11.805Z,14.19
2022-11-10T11:46:15.972Z,14.21
2022-11-10T11:51:20.158Z,14.24
2022-11-10T11:56:24.324Z,14.42
2022-11-10T12:01:28.603Z,14.46
2022-11-10T12:06:32.655Z,14.39
2022-11-10T12:11:36.785Z,14.45
2022-11-10T12:16:40.923Z,14.54
2022-11-10T12:21:45.104Z,14.58
2022-11-10T12:26:49.291Z,14.67
2022-11-10T12:31:53.415Z,14.77
2022-11-10T12:36:57.590Z,14.91
2022-11-10T12:42:01.707Z,14.88
2022-11-10T12:47:05.885Z,14.93
2022-11-10T12:52:10.065Z,14.99
2022-11-10T12:57:14.235Z,15.02
2022-11-10T13:02:18.354Z,15.05
2022-11-10T13:07:22.563Z,15.13
2022-11-10T13:12:26.680Z,15.12
2022-11-10T13:17:30.875Z,15.28
2022-11-10T13:22:34.991Z,15.31
2022-11-10T13:27:39.187Z,15.28
2022-11-10T13:32:43.357Z,15.22
2022-11-10T13:37:47.488Z,15.24
2022-11-10T13:42:51.662Z,15.21
2022-11-10T13:47:53.963Z,15.30
2022-11-10T13:52:58.064Z,15.30
2022-11-10T13:58:02.236Z,15.25
2022-11-10T14:03:06.460Z,15.22
2022-11-10T14:08:10.548Z,15.23
2022-11-10T14:13:12.841Z,15.14
2022-11-10T14:18:16.966Z,15.14
2022-11-10T14:23:21.160Z,15.10
2022-11-10T14:28:25.687Z,15.01
2022-11-10T14:33:29.471Z,14.95
2022-11-10T14:38:33.651Z,14.83
2022-11-10T14:43:37.796Z,14.73
2022-11-10T14:48:41.953Z,14.64
2022-11-10T14:53:46.112Z,14.46
2022-11-10T14:58:50.266Z,14.25
2022-11-10T15:03:54.436Z,14.07
2022-11-10T15:08:58.604Z,13.93
2022-11-10T15:14:02.724Z,13.85
2022-11-10T15:19:06.915Z,13.78
2022-11-10T15:24:11.089Z,13.68
2022-11-10T15:29:15.223Z,13.54
2022-11-10T15:34:19.392Z,13.38
2022-11-10T15:39:23.618Z,13.23
2022-11-10T15:44:27.717Z,13.15
2022-11-10T15:49:31.854Z,13.05
2022-11-10T15:54:36.045Z,12.97
2022-11-10T15:59:40.173Z,12.85
2022-11-10T16:04:44.326Z,12.76
2022-11-10T16:09:48.530Z,12.68
2022-11-10T16:14:52.694Z,12.60
2022-11-10T16:19:56.838Z,12.50
2022-11-10T16:25:01.061Z,12.51
2022-11-10T16:30:05.148Z,12.39
2022-11-10T16:35:09.294Z,12.23
2022-11-10T16:40:13.486Z,12.09
2022-11-10T16:45:17.729Z,11.94
2022-11-10T16:50:21.802Z,11.70
2022-11-10T16:55:25.961Z,11.69
2022-11-10T17:00:30.126Z,11.68
2022-11-10T17:05:34.268Z,11.73
2022-11-10T17:10:38.444Z,11.71
2022-11-10T17:15:42.627Z,11.56
2022-11-10T17:20:46.791Z,11.33
2022-11-10T17:25:50.909Z,11.29
2022-11-10T17:30:55.107Z,11.08
2022-11-10T17:35:59.301Z,10.87
2022-11-10T17:41:03.410Z,10.92
2022-11-10T17:46:07.587Z,10.90
2022-11-10T17:51:11.734Z,10.99
2022-11-10T17:56:15.903Z,10.97
2022-11-10T18:01:20.129Z,10.93
2022-11-10T18:06:24.207Z,10.98
2022-11-10T18:11:28.353Z,11.01
2022-11-10T18:16:32.550Z,10.96
2022-11-10T18:21:36.699Z,11.01
2022-11-10T18:26:40.837Z,10.92
2022-11-10T18:31:45.018Z,10.88
2022-11-10T18:36:49.176Z,10.84
2022-11-10T18:41:53.352Z,10.76
2022-11-10T18:46:57.494Z,10.71
2022-11-10T18:52:01.694Z,10.54
2022-11-10T18:57:05.834Z,10.36
2022-11-10T19:02:10.003Z,10.30
2022-11-10T19:07:14.229Z,10.32
2022-11-10T19:12:19.553Z,10.24
2022-11-10T19:17:22.463Z,10.21
2022-11-10T19:22:26.657Z,10.22
2022-11-10T19:27:30.788Z,10.28
2022-11-10T19:32:34.933Z,10.30
2022-11-10T19:37:39.140Z,10.27
2022-11-10T19:42:41.405Z,10.26
2022-11-10T19:47:45.541Z,10.27
2022-11-10T19:52:49.699Z,10.25
2022-11-10T19:57:53.856Z,10.24
2022-11-10T20:02:58.053Z,10.20
2022-11-10T20:08:05.166Z,10.17
2022-11-10T20:13:06.372Z,10.16
2022-11-10T20:18:10.503Z,10.21
2022-11-10T20:23:14.686Z,10.09
2022-11-10T20:28:18.850Z,10.05
2022-11-10T20:33:23.302Z,10.01
2022-11-10T20:38:27.153Z,10.04
2022-11-10T20:43:31.297Z,9.97
2022-11-10T20:48:35.479Z,9.92
2022-11-10T20:53:39.670Z,9.89
2022-11-10T20:58:43.815Z,9.81
2022-11-10T21:03:48.004Z,9.81
2022-11-10T21:08:52.150Z,9.70
2022-11-10T21:13:56.300Z,9.65
2022-11-10T21:19:00.454Z,9.66
2022-11-10T21:24:04.630Z,9.68
2022-11-10T21:29:08.777Z,9.69
2022-11-10T21:34:12.910Z,9.76
2022-11-10T21:39:17.113Z,9.69
2022-11-10T21:44:21.248Z,9.64
2022-11-10T21:49:25.449Z,9.63
2022-11-10T21:54:29.593Z,9.53
2022-11-10T21:59:33.742Z,9.45
2022-11-10T22:04:37.913Z,9.37
2022-11-10T22:09:42.089Z,9.37
2022-11-10T22:14:46.226Z,9.50
2022-11-10T22:19:50.402Z,9.55
2022-11-10T22:24:54.560Z,9.52
2022-11-10T22:29:58.676Z,9.38
2022-11-10T22:35:02.873Z,9.37
2022-11-10T22:40:07.018Z,9.41
2022-11-10T22:45:11.210Z,9.36
2022-11-10T22:50:15.343Z,9.28
2022-11-10T22:55:19.515Z,9.24
2022-11-10T23:00:23.654Z,9.20
2022-11-10T23:05:27.822Z,9.14
2022-11-10T23:10:31.984Z,9.17
2022-11-10T23:15:36.177Z,9.18
2022-11-10T23:20:40.319Z,9.15
2022-11-10T23:25:44.467Z,9.11
2022-11-10T23:30:48.693Z,9.05
2022-11-10T23:35:52.811Z,9.10
2022-11-10T23:40:57.000Z,9.01
2022-11-10T23:51:05.278Z,9.01
2022-11-10T23:56:09.464Z,8.99
